Time;durP1;ratioP1;P1;durP2;ratioP2;P2;SDS_P1;SDS_P2;PMS_P1;PMS_P2;Temp;Humidity;BMP_temperature;BMP_pressure;BME280_temperature;BME280_humidity;BME280_pressure;Samples;Min_cycle;Max_cycle;Signal;HPM_P1;HPM_P2
2021/05/07 00:02:02;;;;;;;0.75;0.20;;;;;;;-142.37;100.00;59669.53;5032353;28;20029;-58
2021/05/07 00:04:28;;;;;;;0.10;0.10;;;;;;;-142.37;100.00;59669.53;5032550;28;20040;-57
2021/05/07 00:06:53;;;;;;;0.20;0.10;;;;;;;-142.37;100.00;59669.53;5032464;28;20017;-58
2021/05/07 00:09:19;;;;;;;0.73;0.10;;;;;;;-142.37;100.00;59669.53;5032305;28;20026;-58
2021/05/07 00:11:45;;;;;;;0.40;0.20;;;;;;;-142.37;100.00;59669.53;5032663;28;20405;-57
2021/05/07 00:14:11;;;;;;;0.38;0.05;;;;;;;-142.37;100.00;59669.53;5032397;28;20064;-58
2021/05/07 00:16:36;;;;;;;0.10;0.10;;;;;;;-142.37;100.00;59669.53;5032268;28;20021;-58
2021/05/07 00:19:05;;;;;;;1.58;0.47;;;;;;;-142.37;100.00;59669.53;5032501;28;20021;-58
2021/05/07 00:21:31;;;;;;;0.55;0.30;;;;;;;-142.37;100.00;59669.53;5032187;28;20361;-58
2021/05/07 00:23:56;;;;;;;0.45;0.10;;;;;;;-142.37;100.00;59669.53;5032424;28;20040;-58
2021/05/07 00:26:21;;;;;;;0.05;0.00;;;;;;;-142.37;100.00;59669.53;5032162;28;20113;-58
2021/05/07 00:28:46;;;;;;;0.00;0.00;;;;;;;-142.37;100.00;59669.53;5030948;28;20485;-58
2021/05/07 00:31:12;;;;;;;0.17;0.10;;;;;;;-142.37;100.00;59669.53;5031318;28;20033;-58
2021/05/07 00:33:37;;;;;;;1.75;0.32;;;;;;;-142.37;100.00;59669.53;5032112;28;20468;-58
2021/05/07 00:36:03;;;;;;;0.52;0.10;;;;;;;-142.37;100.00;59669.53;5032367;28;20026;-58
2021/05/07 00:38:29;;;;;;;0.05;0.00;;;;;;;-142.37;100.00;59669.53;5032067;28;20021;-57
2021/05/07 00:40:54;;;;;;;0.13;0.10;;;;;;;-142.37;100.00;59669.53;5032210;28;20021;-58
2021/05/07 00:43:19;;;;;;;0.20;0.00;;;;;;;-142.37;100.00;59669.53;5033218;28;20032;-58
2021/05/07 00:45:45;;;;;;;0.35;0.20;;;;;;;-142.37;100.00;59669.53;5035806;28;20049;-58
2021/05/07 00:48:16;;;;;;;0.10;0.10;;;;;;;-142.37;100.00;59669.53;5036013;28;20026;-58
2021/05/07 00:50:43;;;;;;;0.38;0.15;;;;;;;-142.37;100.00;59669.53;5035597;28;20089;-58
2021/05/07 00:53:09;;;;;;;0.47;0.20;;;;;;;-142.37;100.00;59669.53;5034486;28;20357;-58
2021/05/07 00:55:36;;;;;;;1.08;0.20;;;;;;;-142.37;100.00;59669.53;5035523;28;20025;-58
2021/05/07 00:58:01;;;;;;;0.10;0.10;;;;;;;-142.37;100.00;59669.53;5035607;28;20064;-58
2021/05/07 01:00:30;;;;;;;0.73;0.10;;;;;;;-142.37;100.00;59669.53;5035316;28;20057;-58
2021/05/07 01:02:56;;;;;;;0.32;0.05;;;;;;;-142.37;100.00;59669.53;5035573;28;20376;-59
2021/05/07 01:05:21;;;;;;;0.60;0.10;;;;;;;-142.37;100.00;59669.53;5035360;28;20021;-58
2021/05/07 01:07:50;;;;;;;0.80;0.38;;;;;;;-142.37;100.00;59669.53;5035368;28;20079;-58
2021/05/07 01:10:17;;;;;;;0.10;0.03;;;;;;;-142.37;100.00;59669.53;5035245;28;20380;-59
2021/05/07 01:12:44;;;;;;;0.40;0.10;;;;;;;-142.37;100.00;59669.53;5035306;28;20252;-58
2021/05/07 01:15:23;;;;;;;0.40;0.10;;;;;;;-142.37;100.00;59669.53;5035383;28;20384;-58
2021/05/07 01:17:53;;;;;;;1.60;0.10;;;;;;;-142.37;100.00;59669.53;5035350;28;20018;-58
2021/05/07 01:20:26;;;;;;;0.52;0.10;;;;;;;-142.37;100.00;59669.53;5034892;28;20045;-58
2021/05/07 01:22:53;;;;;;;0.20;0.10;;;;;;;-142.37;100.00;59669.53;5035481;28;20060;-58
2021/05/07 01:25:24;;;;;;;0.30;0.10;;;;;;;-142.37;100.00;59669.53;5035073;28;20021;-58
2021/05/07 01:27:55;;;;;;;0.65;0.10;;;;;;;-142.37;100.00;59669.53;5035030;28;20075;-58
2021/05/07 01:30:24;;;;;;;0.13;0.10;;;;;;;-142.37;100.00;59669.53;5034843;28;20021;-58
2021/05/07 01:32:50;;;;;;;0.15;0.03;;;;;;;-142.37;100.00;59669.53;5035077;28;20044;-58
2021/05/07 01:35:24;;;;;;;0.17;0.10;;;;;;;-142.37;100.00;59669.53;5034898;28;20021;-58
2021/05/07 01:37:54;;;;;;;0.30;0.10;;;;;;;-142.37;100.00;59669.53;5033694;28;20013;-58
2021/05/07 01:40:27;;;;;;;0.55;0.17;;;;;;;-142.37;100.00;59669.53;5034580;28;20531;-58
2021/05/07 01:42:53;;;;;;;0.53;0.00;;;;;;;-142.37;100.00;59669.53;5034868;28;20029;-58
2021/05/07 01:45:22;;;;;;;0.50;0.10;;;;;;;-142.37;100.00;59669.53;5033356;28;20750;-58
2021/05/07 01:47:47;;;;;;;0.20;0.13;;;;;;;-142.37;100.00;59669.53;5034693;28;20116;-58
2021/05/07 01:50:15;;;;;;;0.20;0.10;;;;;;;-142.37;100.00;59669.53;5034573;28;20120;-58
2021/05/07 01:52:41;;;;;;;0.10;0.10;;;;;;;-142.37;100.00;59669.53;5034666;28;20029;-58
2021/05/07 01:55:09;;;;;;;0.52;0.13;;;;;;;-142.37;100.00;59669.53;5033907;28;20033;-57
2021/05/07 01:57:36;;;;;;;0.20;0.13;;;;;;;-142.37;100.00;59669.53;5034287;28;20030;-58
2021/05/07 02:00:05;;;;;;;0.60;0.10;;;;;;;-142.37;100.00;59669.53;5037627;28;20021;-58
2021/05/07 02:02:31;;;;;;;0.40;0.10;;;;;;;-142.37;100.00;59669.53;5054142;28;20074;-57
2021/05/07 02:04:56;;;;;;;0.40;0.20;;;;;;;-142.37;100.00;59669.53;5054389;28;20048;-59
2021/05/07 02:07:21;;;;;;;1.00;0.00;;;;;;;-142.37;100.00;59669.53;5054025;28;20498;-58
2021/05/07 02:09:46;;;;;;;0.10;0.10;;;;;;;-142.37;100.00;59669.53;5054201;28;20109;-58
2021/05/07 02:12:12;;;;;;;0.40;0.10;;;;;;;-142.37;100.00;59669.53;5054328;28;20041;-58
2021/05/07 02:14:37;;;;;;;0.73;0.22;;;;;;;-142.37;100.00;59669.53;5053997;28;20017;-58
2021/05/07 02:17:04;;;;;;;0.35;0.10;;;;;;;-142.37;100.00;59669.53;5054125;28;20029;-58
2021/05/07 02:19:29;;;;;;;1.00;0.40;;;;;;;-142.37;100.00;59669.53;5053681;28;20099;-58
2021/05/07 02:21:55;;;;;;;0.50;0.20;;;;;;;-142.37;100.00;59669.53;5052967;28;20464;-58
2021/05/07 02:24:20;;;;;;;0.22;0.10;;;;;;;-142.37;100.00;59669.53;5053682;28;20081;-58
2021/05/07 02:26:45;;;;;;;0.20;0.10;;;;;;;-142.37;100.00;59669.53;5053834;28;20115;-58
2021/05/07 02:29:11;;;;;;;1.42;0.50;;;;;;;-142.37;100.00;59669.53;5053820;28;20468;-58
2021/05/07 02:31:36;;;;;;;0.50;0.10;;;;;;;-142.37;100.00;59669.53;5053685;28;20526;-58
2021/05/07 02:34:02;;;;;;;0.75;0.20;;;;;;;-142.37;100.00;59669.53;5053733;28;20104;-58
2021/05/07 02:36:27;;;;;;;0.20;0.13;;;;;;;-142.37;100.00;59669.53;5053519;28;20104;-58
2021/05/07 02:38:53;;;;;;;0.40;0.17;;;;;;;-142.37;100.00;59669.53;5053726;28;20393;-58
2021/05/07 02:41:18;;;;;;;0.00;0.00;;;;;;;-142.37;100.00;59669.53;5053649;28;20024;-58
2021/05/07 02:43:43;;;;;;;0.08;0.08;;;;;;;-142.37;100.00;59669.53;5053507;28;20040;-58
2021/05/07 02:46:09;;;;;;;0.22;0.10;;;;;;;-142.37;100.00;59669.53;5053428;28;20078;-59
2021/05/07 02:48:34;;;;;;;0.10;0.10;;;;;;;-142.37;100.00;59669.53;5053338;28;20475;-58
2021/05/07 02:50:59;;;;;;;0.00;0.00;;;;;;;-142.37;100.00;59669.53;5053490;28;20020;-58
2021/05/07 02:53:25;;;;;;;1.20;0.20;;;;;;;-142.37;100.00;59669.53;5053170;28;20070;-58
2021/05/07 02:55:50;;;;;;;0.43;0.20;;;;;;;-142.37;100.00;59669.53;5053371;28;20044;-58
2021/05/07 02:58:15;;;;;;;0.30;0.20;;;;;;;-142.37;100.00;59669.53;5053110;28;20021;-58
2021/05/07 03:00:41;;;;;;;0.88;0.25;;;;;;;-142.37;100.00;59669.53;5044824;28;20360;-59
2021/05/07 03:03:06;;;;;;;0.35;0.10;;;;;;;-142.37;100.00;59669.53;5033359;28;20021;-58
2021/05/07 03:05:32;;;;;;;0.52;0.20;;;;;;;-142.37;100.00;59669.53;5033045;28;20484;-58
2021/05/07 03:07:57;;;;;;;0.30;0.10;;;;;;;-142.37;100.00;59669.53;5033215;28;20036;-58
2021/05/07 03:10:23;;;;;;;0.32;0.15;;;;;;;-142.37;100.00;59669.53;5032854;28;20403;-58
2021/05/07 03:12:48;;;;;;;0.00;0.00;;;;;;;-142.37;100.00;59669.53;5033269;28;20079;-58
2021/05/07 03:15:14;;;;;;;0.65;0.32;;;;;;;-142.37;100.00;59669.53;5033016;28;20373;-58
2021/05/07 03:17:39;;;;;;;0.38;0.10;;;;;;;-142.37;100.00;59669.53;5032962;28;20071;-58
2021/05/07 03:20:05;;;;;;;0.50;0.08;;;;;;;-142.37;100.00;59669.53;5032828;28;20484;-57
2021/05/07 03:22:31;;;;;;;0.45;0.20;;;;;;;-142.37;100.00;59669.53;5032754;28;20025;-58
2021/05/07 03:24:56;;;;;;;0.55;0.17;;;;;;;-142.37;100.00;59669.53;5032855;28;20439;-58
2021/05/07 03:27:21;;;;;;;0.75;0.20;;;;;;;-142.37;100.00;59669.53;5032706;28;20028;-58
2021/05/07 03:29:46;;;;;;;0.40;0.17;;;;;;;-142.37;100.00;59669.53;5032821;28;20461;-58
2021/05/07 03:32:12;;;;;;;0.20;0.10;;;;;;;-142.37;100.00;59669.53;5031434;28;20030;-58
2021/05/07 03:34:37;;;;;;;0.20;0.10;;;;;;;-142.37;100.00;59669.53;5032672;28;20465;-58
2021/05/07 03:37:03;;;;;;;0.30;0.20;;;;;;;-142.37;100.00;59669.53;5032815;28;20029;-58
2021/05/07 03:39:28;;;;;;;0.50;0.10;;;;;;;-142.37;100.00;59669.53;5031319;28;20025;-58
2021/05/07 03:41:53;;;;;;;0.08;0.00;;;;;;;-142.37;100.00;59669.53;5031477;28;20029;-59
2021/05/07 03:44:18;;;;;;;0.13;0.13;;;;;;;-142.37;100.00;59669.53;5032529;28;20247;-57
2021/05/07 03:46:44;;;;;;;0.22;0.20;;;;;;;-142.37;100.00;59669.53;5033128;28;20022;-58
2021/05/07 03:49:09;;;;;;;0.35;0.17;;;;;;;-142.37;100.00;59669.53;5032684;28;20026;-58
2021/05/07 03:51:34;;;;;;;0.55;0.50;;;;;;;-142.37;100.00;59669.53;5032392;28;20523;-58
2021/05/07 03:54:00;;;;;;;0.40;0.17;;;;;;;-142.37;100.00;59669.53;5032691;28;20071;-58
2021/05/07 03:56:25;;;;;;;1.02;0.10;;;;;;;-142.37;100.00;59669.53;5032189;28;20108;-58
2021/05/07 03:58:50;;;;;;;0.80;0.10;;;;;;;-142.37;100.00;59669.53;5032553;28;20052;-58
2021/05/07 04:01:15;;;;;;;0.47;0.13;;;;;;;-142.37;100.00;59669.53;5031070;28;20025;-58
2021/05/07 04:03:41;;;;;;;1.20;0.20;;;;;;;-142.37;100.00;59669.53;5032939;28;20030;-58
2021/05/07 04:06:14;;;;;;;0.30;0.30;;;;;;;-142.37;100.00;59669.53;5032490;28;20024;-58
2021/05/07 04:08:42;;;;;;;0.60;0.20;;;;;;;-142.37;100.00;59669.53;5032556;28;20048;-58
2021/05/07 04:11:20;;;;;;;1.08;0.13;;;;;;;-142.37;100.00;59669.53;5032527;28;20384;-58
2021/05/07 04:13:46;;;;;;;0.10;0.00;;;;;;;-142.37;100.00;59669.53;5032377;28;20523;-58
2021/05/07 04:16:11;;;;;;;0.30;0.10;;;;;;;-142.37;100.00;59669.53;5032342;28;20033;-58
2021/05/07 04:18:38;;;;;;;0.40;0.10;;;;;;;-142.37;100.00;59669.53;5033893;28;20460;-58
2021/05/07 04:21:03;;;;;;;0.20;0.20;;;;;;;-142.37;100.00;59669.53;5036311;28;20442;-58
2021/05/07 04:23:29;;;;;;;0.03;0.03;;;;;;;-142.37;100.00;59669.53;5035158;28;20025;-58
2021/05/07 04:25:55;;;;;;;0.32;0.10;;;;;;;-142.37;100.00;59669.53;5036223;28;20066;-57
2021/05/07 04:28:21;;;;;;;0.30;0.10;;;;;;;-142.37;100.00;59669.53;5035899;28;20025;-58
2021/05/07 04:30:47;;;;;;;0.60;0.10;;;;;;;-142.37;100.00;59669.53;5036128;28;20044;-58
2021/05/07 04:33:12;;;;;;;0.73;0.20;;;;;;;-142.37;100.00;59669.53;5036060;28;20029;-58
2021/05/07 04:35:37;;;;;;;0.22;0.10;;;;;;;-142.37;100.00;59669.53;5035738;28;20063;-58
2021/05/07 04:38:03;;;;;;;0.28;0.00;;;;;;;-142.37;100.00;59669.53;5036332;28;20017;-58
2021/05/07 04:40:29;;;;;;;0.28;0.17;;;;;;;-142.37;100.00;59669.53;5035756;28;20059;-58
2021/05/07 04:42:54;;;;;;;0.47;0.10;;;;;;;-142.37;100.00;59669.53;5035993;28;20026;-58
2021/05/07 04:45:20;;;;;;;0.20;0.10;;;;;;;-142.37;100.00;59669.53;5035668;28;20100;-58
2021/05/07 04:47:45;;;;;;;1.27;0.30;;;;;;;-142.37;100.00;59669.53;5036018;28;20021;-57
2021/05/07 04:50:13;;;;;;;0.10;0.10;;;;;;;-142.37;100.00;59669.53;5035623;28;20087;-58
2021/05/07 04:52:38;;;;;;;0.17;0.10;;;;;;;-142.37;100.00;59669.53;5035647;28;20033;-57
2021/05/07 04:55:04;;;;;;;0.30;0.20;;;;;;;-142.37;100.00;59669.53;5035779;28;20075;-58
2021/05/07 04:57:29;;;;;;;1.13;0.20;;;;;;;-142.37;100.00;59669.53;5035387;28;20021;-59
2021/05/07 04:59:55;;;;;;;0.20;0.10;;;;;;;-142.37;100.00;59669.53;5035643;28;20100;-57
2021/05/07 05:02:21;;;;;;;0.40;0.20;;;;;;;-142.37;100.00;59669.53;5035353;28;20465;-58
2021/05/07 05:04:46;;;;;;;0.10;0.10;;;;;;;-142.37;100.00;59669.53;5035514;28;20017;-58
2021/05/07 05:07:12;;;;;;;0.35;0.10;;;;;;;-142.37;100.00;59669.53;5035248;28;20033;-58
2021/05/07 05:09:37;;;;;;;0.15;0.15;;;;;;;-142.37;100.00;59669.53;5035264;28;20021;-57
2021/05/07 05:12:03;;;;;;;0.32;0.22;;;;;;;-142.37;100.00;59669.53;5035393;28;20461;-58
2021/05/07 05:14:28;;;;;;;0.17;0.10;;;;;;;-142.37;100.00;59669.53;5035240;28;20025;-57
2021/05/07 05:16:53;;;;;;;0.32;0.00;;;;;;;-142.37;100.00;59669.53;5035308;28;20025;-58
2021/05/07 05:19:19;;;;;;;0.75;0.20;;;;;;;-142.37;100.00;59669.53;5035033;28;20484;-58
2021/05/07 05:21:44;;;;;;;1.10;0.20;;;;;;;-142.37;100.00;59669.53;5035131;28;20056;-58
2021/05/07 05:24:09;;;;;;;0.43;0.00;;;;;;;-142.37;100.00;59669.53;5035364;28;20101;-58
2021/05/07 05:26:35;;;;;;;0.77;0.30;;;;;;;-142.37;100.00;59669.53;5034933;28;20556;-58
2021/05/07 05:29:00;;;;;;;1.10;0.20;;;;;;;-142.37;100.00;59669.53;5034804;28;20076;-57
2021/05/07 05:31:25;;;;;;;0.65;0.17;;;;;;;-142.37;100.00;59669.53;5034036;28;20036;-58
2021/05/07 05:33:51;;;;;;;0.10;0.10;;;;;;;-142.37;100.00;59669.53;5034996;28;20057;-57
2021/05/07 05:36:16;;;;;;;0.22;0.10;;;;;;;-142.37;100.00;59669.53;5033565;28;20032;-57
2021/05/07 05:38:41;;;;;;;0.40;0.10;;;;;;;-142.37;100.00;59669.53;5034889;28;20029;-58
2021/05/07 05:41:07;;;;;;;1.05;0.10;;;;;;;-142.37;100.00;59669.53;5034976;28;20029;-58
2021/05/07 05:43:32;;;;;;;0.50;0.10;;;;;;;-142.37;100.00;59669.53;5033314;28;20060;-57
2021/05/07 05:45:58;;;;;;;0.57;0.10;;;;;;;-142.37;100.00;59669.53;5034828;28;20104;-57
2021/05/07 05:48:23;;;;;;;0.15;0.13;;;;;;;-142.37;100.00;59669.53;5034370;28;20063;-58
2021/05/07 05:50:50;;;;;;;0.77;0.20;;;;;;;-142.37;100.00;59669.53;5034804;28;20036;-58
2021/05/07 05:53:16;;;;;;;0.00;0.00;;;;;;;-142.37;100.00;59669.53;5034587;28;20029;-58
2021/05/07 05:55:42;;;;;;;0.13;0.10;;;;;;;-142.37;100.00;59669.53;5034536;28;20144;-57
2021/05/07 05:58:07;;;;;;;0.47;0.20;;;;;;;-142.37;100.00;59669.53;5034479;28;20022;-58
2021/05/07 06:00:33;;;;;;;0.43;0.20;;;;;;;-142.37;100.00;59669.53;5034184;28;20036;-58
2021/05/07 06:02:59;;;;;;;0.30;0.10;;;;;;;-142.37;100.00;59669.53;5034567;28;20575;-58
2021/05/07 06:05:25;;;;;;;0.85;0.17;;;;;;;-142.37;100.00;59669.53;5034174;28;20032;-57
2021/05/07 06:07:50;;;;;;;0.20;0.10;;;;;;;-142.37;100.00;59669.53;5034370;28;20396;-58
2021/05/07 06:10:18;;;;;;;0.20;0.20;;;;;;;-142.37;100.00;59669.53;5034156;28;20025;-58
2021/05/07 06:12:44;;;;;;;0.63;0.13;;;;;;;-142.37;100.00;59669.53;5033520;28;20033;-58
2021/05/07 06:15:10;;;;;;;0.10;0.10;;;;;;;-142.37;100.00;59669.53;5050285;28;20527;-58
2021/05/07 06:17:36;;;;;;;0.10;0.10;;;;;;;-142.37;100.00;59669.53;5052592;28;20056;-57
2021/05/07 06:20:04;;;;;;;0.75;0.20;;;;;;;-142.37;100.00;59669.53;5052722;28;20337;-57
2021/05/07 06:22:30;;;;;;;0.98;0.35;;;;;;;-142.37;100.00;59669.53;5050712;28;20111;-57
2021/05/07 06:24:56;;;;;;;0.70;0.55;;;;;;;-142.37;100.00;59669.53;5051630;28;20108;-59
2021/05/07 06:27:21;;;;;;;1.80;1.40;;;;;;;-142.37;100.00;59669.53;5053615;28;20629;-58
2021/05/07 06:29:47;;;;;;;2.08;1.85;;;;;;;-142.37;100.00;59669.53;5051466;28;20114;-57
2021/05/07 06:32:12;;;;;;;3.17;2.67;;;;;;;-142.37;100.00;59669.53;5052160;28;20033;-58
2021/05/07 06:34:37;;;;;;;6.22;5.18;;;;;;;-142.37;100.00;59669.53;5052684;28;20029;-58
2021/05/07 06:37:03;;;;;;;9.00;7.05;;;;;;;-142.37;100.00;59669.53;5053354;28;20082;-58
2021/05/07 06:39:31;;;;;;;10.52;9.43;;;;;;;-142.37;100.00;59669.53;5052027;28;20053;-58
2021/05/07 06:42:00;;;;;;;16.80;14.27;;;;;;;-142.37;100.00;59669.53;5052608;28;20131;-58
2021/05/07 06:44:26;;;;;;;19.65;16.27;;;;;;;-142.37;100.00;59669.53;5050774;28;20021;-59
2021/05/07 06:46:52;;;;;;;23.00;19.42;;;;;;;-142.37;100.00;59669.53;5053418;28;20024;-58
2021/05/07 06:49:18;;;;;;;23.30;20.33;;;;;;;-142.37;100.00;59669.53;5052799;28;20059;-59
2021/05/07 06:51:43;;;;;;;27.20;23.88;;;;;;;-142.37;100.00;59669.53;5048757;28;20063;-58
2021/05/07 06:54:09;;;;;;;21.38;19.17;;;;;;;-142.37;100.00;59669.53;5043249;28;20464;-58
2021/05/07 06:56:35;;;;;;;18.88;16.67;;;;;;;-142.37;100.00;59669.53;5040081;28;20458;-59
2021/05/07 06:59:00;;;;;;;16.67;14.98;;;;;;;-142.37;100.00;59669.53;5053287;28;20029;-58
2021/05/07 07:01:25;;;;;;;14.15;12.65;;;;;;;-142.37;100.00;59669.53;5053086;28;20379;-58
2021/05/07 07:03:51;;;;;;;12.73;11.52;;;;;;;-142.37;100.00;59669.53;5053229;28;20127;-59
2021/05/07 07:06:17;;;;;;;11.52;10.40;;;;;;;-142.37;100.00;59669.53;5049193;28;20025;-58
2021/05/07 07:08:42;;;;;;;9.93;9.02;;;;;;;-142.37;100.00;59669.53;5048274;28;20039;-58
2021/05/07 07:11:07;;;;;;;9.70;8.80;;;;;;;-142.37;100.00;59669.53;5050917;28;20059;-58
2021/05/07 07:13:33;;;;;;;8.20;7.40;;;;;;;-142.37;100.00;59669.53;5052795;28;20032;-58
2021/05/07 07:15:58;;;;;;;7.00;6.00;;;;;;;-142.37;100.00;59669.53;5052938;28;20028;-58
2021/05/07 07:18:23;;;;;;;6.50;5.90;;;;;;;-142.37;100.00;59669.53;5052753;28;20060;-58
2021/05/07 07:20:49;;;;;;;6.00;5.50;;;;;;;-142.37;100.00;59669.53;5047616;28;20040;-58
2021/05/07 07:23:15;;;;;;;5.38;4.90;;;;;;;-142.37;100.00;59669.53;5051215;28;20033;-57
2021/05/07 07:25:41;;;;;;;4.38;3.97;;;;;;;-142.37;100.00;59669.53;5040401;28;20372;-58
2021/05/07 07:28:07;;;;;;;4.60;4.20;;;;;;;-142.37;100.00;59669.53;5052804;28;20032;-57
2021/05/07 07:30:32;;;;;;;5.22;4.18;;;;;;;-142.37;100.00;59669.53;5050959;28;20422;-59
2021/05/07 07:32:58;;;;;;;5.63;4.70;;;;;;;-142.37;100.00;59669.53;5052431;28;20460;-58
2021/05/07 07:35:23;;;;;;;5.38;4.88;;;;;;;-142.37;100.00;59669.53;5047655;28;20028;-58
2021/05/07 07:37:49;;;;;;;6.60;5.75;;;;;;;-142.37;100.00;59669.53;5049130;28;20028;-59
2021/05/07 07:40:14;;;;;;;8.77;7.88;;;;;;;-142.37;100.00;59669.53;5047968;28;20028;-59
2021/05/07 07:42:43;;;;;;;13.05;11.18;;;;;;;-142.37;100.00;59669.53;5046846;28;20021;-59
2021/05/07 07:45:09;;;;;;;12.88;11.57;;;;;;;-142.37;100.00;59669.53;5047349;28;20033;-59
2021/05/07 07:47:35;;;;;;;13.98;12.55;;;;;;;-142.37;100.00;59669.53;5048050;28;20061;-58
2021/05/07 07:50:01;;;;;;;15.02;13.43;;;;;;;-142.37;100.00;59669.53;5049235;28;20048;-58
2021/05/07 07:52:26;;;;;;;14.75;13.23;;;;;;;-142.37;100.00;59669.53;5048871;28;20033;-59
2021/05/07 07:54:51;;;;;;;13.38;12.10;;;;;;;-142.37;100.00;59669.53;5047653;28;20482;-59
2021/05/07 07:57:17;;;;;;;12.05;10.88;;;;;;;-142.37;100.00;59669.53;5052231;28;20059;-59
2021/05/07 07:59:42;;;;;;;10.98;9.88;;;;;;;-142.37;100.00;59669.53;5048515;28;20036;-59
2021/05/07 08:02:07;;;;;;;9.82;8.90;;;;;;;-142.37;100.00;59669.53;5052242;28;20407;-59
2021/05/07 08:04:33;;;;;;;8.98;8.15;;;;;;;-142.37;100.00;59669.53;5049325;28;20060;-60
2021/05/07 08:07:00;;;;;;;8.70;7.90;;;;;;;-142.37;100.00;59669.53;5045636;28;20057;-59
2021/05/07 08:09:25;;;;;;;7.28;6.57;;;;;;;-142.37;100.00;59669.53;5050229;28;20025;-58
2021/05/07 08:11:52;;;;;;;7.22;6.53;;;;;;;-142.37;100.00;59669.53;5043072;28;20078;-58
2021/05/07 08:14:18;;;;;;;6.80;6.15;;;;;;;-142.37;100.00;59669.53;5041435;28;20100;-57
2021/05/07 08:16:43;;;;;;;6.15;5.55;;;;;;;-142.37;100.00;59669.53;5048801;28;20112;-57
2021/05/07 08:19:08;;;;;;;5.90;5.30;;;;;;;-142.37;100.00;59669.53;5049642;28;20025;-58
2021/05/07 08:21:34;;;;;;;5.22;4.72;;;;;;;-142.37;100.00;59669.53;5049650;28;20033;-57
2021/05/07 08:23:59;;;;;;;4.72;4.25;;;;;;;-142.37;100.00;59669.53;5052058;28;20104;-57
2021/05/07 08:26:24;;;;;;;3.83;3.35;;;;;;;-142.37;100.00;59669.53;5050981;28;20063;-58
2021/05/07 08:28:50;;;;;;;3.80;3.40;;;;;;;-142.37;100.00;59669.53;5050838;28;20396;-58
2021/05/07 08:31:15;;;;;;;3.53;2.70;;;;;;;-142.37;100.00;59669.53;5051251;28;20463;-59
2021/05/07 08:33:40;;;;;;;2.75;2.55;;;;;;;-142.37;100.00;59669.53;5047551;28;20018;-58
2021/05/07 08:36:06;;;;;;;2.63;2.42;;;;;;;-142.37;100.00;59669.53;5042623;28;20121;-58
2021/05/07 08:38:31;;;;;;;2.47;2.28;;;;;;;-142.37;100.00;59669.53;5048565;28;20044;-58
2021/05/07 08:41:01;;;;;;;3.25;2.30;;;;;;;-142.37;100.00;59669.53;5043943;28;20039;-58
2021/05/07 08:43:27;;;;;;;1.88;1.70;;;;;;;-142.37;100.00;59669.53;5038322;28;20052;-59
2021/05/07 08:45:52;;;;;;;1.60;1.50;;;;;;;-142.37;100.00;59669.53;5037590;28;20065;-60
2021/05/07 08:48:17;;;;;;;1.40;1.30;;;;;;;-142.37;100.00;59669.53;5050538;28;20116;-59
2021/05/07 08:50:47;;;;;;;1.60;1.48;;;;;;;-142.37;100.00;59669.53;5046985;28;20037;-59
2021/05/07 08:53:15;;;;;;;1.17;1.10;;;;;;;-142.37;100.00;59669.53;5048510;28;20028;-59
2021/05/07 08:55:40;;;;;;;1.40;1.17;;;;;;;-142.37;100.00;59669.53;5032954;28;20665;-59
2021/05/07 08:58:07;;;;;;;0.90;0.90;;;;;;;-142.37;100.00;59669.53;5033786;28;20026;-59
2021/05/07 09:00:32;;;;;;;1.17;0.95;;;;;;;-142.37;100.00;59669.53;5034010;28;20029;-59
2021/05/07 09:03:09;;;;;;;0.75;0.68;;;;;;;-142.37;100.00;59669.53;5040453;28;20037;-59
2021/05/07 09:05:36;;;;;;;1.65;1.08;;;;;;;-142.37;100.00;59669.53;5039512;28;20021;-59
2021/05/07 09:08:02;;;;;;;0.73;0.60;;;;;;;-142.37;100.00;59669.53;5055337;28;20507;-59
2021/05/07 09:10:32;;;;;;;0.70;0.70;;;;;;;-142.37;100.00;59669.53;5053254;28;20068;-59
2021/05/07 09:12:57;;;;;;;0.65;0.65;;;;;;;-142.37;100.00;59669.53;5047598;28;20033;-60
2021/05/07 09:15:23;;;;;;;0.50;0.50;;;;;;;-142.37;100.00;59669.53;5044331;28;20527;-59
2021/05/07 09:17:48;;;;;;;1.05;0.82;;;;;;;-142.37;100.00;59669.53;5034191;28;20461;-60
2021/05/07 09:20:14;;;;;;;0.52;0.50;;;;;;;-142.37;100.00;59669.53;5048143;28;20045;-60
2021/05/07 09:22:41;;;;;;;0.93;0.50;;;;;;;-142.37;100.00;59669.53;5037533;28;20498;-59
2021/05/07 09:25:17;;;;;;;0.70;0.50;;;;;;;-142.37;100.00;59669.53;5043241;28;20546;-60
2021/05/07 09:27:43;;;;;;;1.20;0.57;;;;;;;-142.37;100.00;59669.53;5048082;28;20044;-60
2021/05/07 09:30:21;;;;;;;1.30;0.52;;;;;;;-142.37;100.00;59669.53;5046720;28;20111;-59
2021/05/07 09:32:49;;;;;;;0.30;0.30;;;;;;;-142.37;100.00;59669.53;5034186;28;20037;-59
2021/05/07 09:35:16;;;;;;;0.20;0.20;;;;;;;-142.37;100.00;59669.53;5043159;28;20024;-60
2021/05/07 09:37:43;;;;;;;0.60;0.60;;;;;;;-142.37;100.00;59669.53;5034000;28;20464;-60
2021/05/07 09:40:15;;;;;;;0.80;0.35;;;;;;;-142.37;100.00;59669.53;5034141;28;20026;-60
2021/05/07 09:42:41;;;;;;;1.00;0.30;;;;;;;-142.37;100.00;59669.53;5037867;28;20017;-59
2021/05/07 09:45:18;;;;;;;0.30;0.30;;;;;;;-142.37;100.00;59669.53;5048609;28;20048;-60
2021/05/07 09:47:44;;;;;;;1.05;0.30;;;;;;;-142.37;100.00;59669.53;5035130;28;20021;-60
2021/05/07 09:50:10;;;;;;;0.88;0.30;;;;;;;-142.37;100.00;59669.53;5045019;28;20107;-61
2021/05/07 09:52:35;;;;;;;0.55;0.20;;;;;;;-142.37;100.00;59669.53;5040001;28;20028;-60
2021/05/07 09:55:01;;;;;;;0.40;0.20;;;;;;;-142.37;100.00;59669.53;5033898;28;20021;-60
2021/05/07 09:57:27;;;;;;;0.38;0.20;;;;;;;-142.37;100.00;59669.53;5044253;28;20379;-61
2021/05/07 09:59:53;;;;;;;0.63;0.45;;;;;;;-142.37;100.00;59669.53;5050249;28;20017;-60
2021/05/07 10:02:18;;;;;;;0.50;0.20;;;;;;;-142.37;100.00;59669.53;5052891;28;20032;-61
2021/05/07 10:04:43;;;;;;;0.65;0.30;;;;;;;-142.37;100.00;59669.53;5053936;28;20050;-60
2021/05/07 10:07:09;;;;;;;0.68;0.50;;;;;;;-142.37;100.00;59669.53;5054108;28;20029;-59
2021/05/07 10:09:35;;;;;;;0.10;0.10;;;;;;;-142.37;100.00;59669.53;5054151;28;20025;-60
2021/05/07 10:12:05;;;;;;;0.40;0.10;;;;;;;-142.37;100.00;59669.53;5054314;28;20448;-60
2021/05/07 10:14:31;;;;;;;0.30;0.10;;;;;;;-142.37;100.00;59669.53;5053930;28;20446;-61
2021/05/07 10:17:07;;;;;;;0.10;0.10;;;;;;;-142.37;100.00;59669.53;5053553;28;20107;-60
2021/05/07 10:19:40;;;;;;;0.60;0.20;;;;;;;-142.37;100.00;59669.53;5053749;28;20072;-60
2021/05/07 10:22:07;;;;;;;0.32;0.15;;;;;;;-142.37;100.00;59669.53;5053937;28;20055;-60
2021/05/07 10:24:36;;;;;;;0.52;0.20;;;;;;;-142.37;100.00;59669.53;5053808;28;20025;-60
2021/05/07 10:27:01;;;;;;;1.05;0.35;;;;;;;-142.37;100.00;59669.53;5052661;28;20037;-61
2021/05/07 10:29:28;;;;;;;0.68;0.20;;;;;;;-142.37;100.00;59669.53;5053590;28;20087;-60
2021/05/07 10:31:55;;;;;;;0.30;0.20;;;;;;;-142.37;100.00;59669.53;5053822;28;20472;-60
2021/05/07 10:34:22;;;;;;;0.75;0.25;;;;;;;-142.37;100.00;59669.53;5047599;28;20488;-60
2021/05/07 10:36:49;;;;;;;0.10;0.10;;;;;;;-142.37;100.00;59669.53;5045341;28;20029;-60
2021/05/07 10:39:30;;;;;;;0.30;0.15;;;;;;;-142.37;100.00;59669.53;5053589;28;20021;-60
2021/05/07 10:41:57;;;;;;;1.30;0.20;;;;;;;-142.37;100.00;59669.53;5052968;28;20032;-60
2021/05/07 10:44:24;;;;;;;0.45;0.10;;;;;;;-142.37;100.00;59669.53;5051689;28;20074;-60
2021/05/07 10:47:06;;;;;;;0.10;0.10;;;;;;;-142.37;100.00;59669.53;5051123;28;20094;-60
2021/05/07 10:49:32;;;;;;;0.82;0.10;;;;;;;-142.37;100.00;59669.53;5045802;28;20017;-60
2021/05/07 10:51:58;;;;;;;0.80;0.20;;;;;;;-142.37;100.00;59669.53;5045175;28;20228;-60
2021/05/07 10:54:34;;;;;;;1.05;0.55;;;;;;;-142.37;100.00;59669.53;5050943;28;20245;-60
2021/05/07 10:56:59;;;;;;;1.15;0.20;;;;;;;-142.37;100.00;59669.53;5051508;28;20091;-60
2021/05/07 10:59:24;;;;;;;0.60;0.20;;;;;;;-142.37;100.00;59669.53;5051526;28;20021;-60
2021/05/07 11:02:00;;;;;;;0.43;0.10;;;;;;;-142.37;100.00;59669.53;5052639;28;20483;-60
2021/05/07 11:04:27;;;;;;;1.15;0.40;;;;;;;-142.37;100.00;59669.53;5051357;28;20032;-60
2021/05/07 11:07:03;;;;;;;0.40;0.20;;;;;;;-142.37;100.00;59669.53;5051653;28;20159;-61